sensor_id;sensor_type;location;lat;lon;timestamp;P1;durP1;ratioP1;P2;durP2;ratioP2
27367;SDS011;14839;48.106;11.618;2024-03-02T05:02:38;9.03;;;5.47;;
27367;SDS011;14839;48.106;11.618;2024-03-02T05:05:03;10.37;;;5.50;;
27367;SDS011;14839;48.106;11.618;2024-03-02T05:07:29;8.57;;;5.67;;
27367;SDS011;14839;48.106;11.618;2024-03-02T05:09:55;7.80;;;4.67;;
27367;SDS011;14839;48.106;11.618;2024-03-02T05:12:20;11.30;;;5.63;;
27367;SDS011;14839;48.106;11.618;2024-03-02T05:15:04;10.33;;;4.97;;
27367;SDS011;14839;48.106;11.618;2024-03-02T05:17:32;9.57;;;5.47;;
27367;SDS011;14839;48.106;11.618;2024-03-02T05:19:57;9.20;;;5.27;;
27367;SDS011;14839;48.106;11.618;2024-03-02T05:22:23;7.67;;;5.20;;
27367;SDS011;14839;48.106;11.618;2024-03-02T05:24:49;11.87;;;4.93;;
27367;SDS011;14839;48.106;11.618;2024-03-02T05:27:15;8.47;;;5.53;;
27367;SDS011;14839;48.106;11.618;2024-03-02T05:29:40;15.27;;;5.87;;
27367;SDS011;14839;48.106;11.618;2024-03-02T05:32:06;8.60;;;5.33;;
27367;SDS011;14839;48.106;11.618;2024-03-02T05:34:32;9.83;;;6.23;;
27367;SDS011;14839;48.106;11.618;2024-03-02T05:37:00;10.23;;;6.33;;
27367;SDS011;14839;48.106;11.618;2024-03-02T05:39:26;7.37;;;4.97;;
27367;SDS011;14839;48.106;11.618;2024-03-02T05:41:51;10.20;;;5.60;;
27367;SDS011;14839;48.106;11.618;2024-03-02T05:44:17;11.73;;;6.30;;
27367;SDS011;14839;48.106;11.618;2024-03-02T05:46:43;12.00;;;6.73;;
27367;SDS011;14839;48.106;11.618;2024-03-02T05:49:09;11.87;;;6.20;;
27367;SDS011;14839;48.106;11.618;2024-03-02T05:51:35;13.93;;;6.70;;
27367;SDS011;14839;48.106;11.618;2024-03-02T05:54:00;8.20;;;5.00;;
27367;SDS011;14839;48.106;11.618;2024-03-02T05:56:26;9.60;;;5.23;;
27367;SDS011;14839;48.106;11.618;2024-03-02T05:58:52;9.73;;;5.70;;
27367;SDS011;14839;48.106;11.618;2024-03-02T06:01:25;11.63;;;6.57;;
27367;SDS011;14839;48.106;11.618;2024-03-02T06:03:56;10.63;;;5.57;;
27367;SDS011;14839;48.106;11.618;2024-03-02T06:06:22;11.47;;;5.53;;
27367;SDS011;14839;48.106;11.618;2024-03-02T06:08:48;12.50;;;6.03;;
27367;SDS011;14839;48.106;11.618;2024-03-02T06:11:13;12.63;;;5.97;;
27367;SDS011;14839;48.106;11.618;2024-03-02T06:13:39;12.13;;;6.20;;
27367;SDS011;14839;48.106;11.618;2024-03-02T06:16:05;8.47;;;5.67;;
27367;SDS011;14839;48.106;11.618;2024-03-02T06:18:30;9.40;;;5.70;;
27367;SDS011;14839;48.106;11.618;2024-03-02T06:20:56;12.83;;;6.50;;
27367;SDS011;14839;48.106;11.618;2024-03-02T06:23:21;12.83;;;6.60;;
27367;SDS011;14839;48.106;11.618;2024-03-02T06:25:47;10.40;;;6.07;;
27367;SDS011;14839;48.106;11.618;2024-03-02T06:28:13;9.33;;;6.00;;
27367;SDS011;14839;48.106;11.618;2024-03-02T06:30:40;10.37;;;6.47;;
27367;SDS011;14839;48.106;11.618;2024-03-02T06:33:07;14.70;;;6.30;;
27367;SDS011;14839;48.106;11.618;2024-03-02T06:35:32;10.03;;;6.63;;
27367;SDS011;14839;48.106;11.618;2024-03-02T06:37:58;11.93;;;7.17;;
27367;SDS011;14839;48.106;11.618;2024-03-02T06:40:24;10.77;;;6.40;;
27367;SDS011;14839;48.106;11.618;2024-03-02T06:42:49;14.60;;;6.73;;
27367;SDS011;14839;48.106;11.618;2024-03-02T06:45:15;13.27;;;6.97;;
27367;SDS011;14839;48.106;11.618;2024-03-02T06:47:40;11.50;;;6.90;;
27367;SDS011;14839;48.106;11.618;2024-03-02T06:50:06;11.90;;;7.07;;
27367;SDS011;14839;48.106;11.618;2024-03-02T06:52:32;13.80;;;7.47;;
27367;SDS011;14839;48.106;11.618;2024-03-02T06:54:57;14.10;;;6.60;;
27367;SDS011;14839;48.106;11.618;2024-03-02T06:57:23;13.83;;;7.20;;
27367;SDS011;14839;48.106;11.618;2024-03-02T06:59:49;11.53;;;7.37;;
27367;SDS011;14839;48.106;11.618;2024-03-02T07:02:16;10.63;;;6.57;;
27367;SDS011;14839;48.106;11.618;2024-03-02T07:04:42;11.17;;;6.73;;
27367;SDS011;14839;48.106;11.618;2024-03-02T07:07:07;13.63;;;6.97;;
27367;SDS011;14839;48.106;11.618;2024-03-02T07:09:33;12.17;;;7.33;;
27367;SDS011;14839;48.106;11.618;2024-03-02T07:11:58;13.80;;;7.97;;
27367;SDS011;14839;48.106;11.618;2024-03-02T07:14:24;16.63;;;8.00;;
27367;SDS011;14839;48.106;11.618;2024-03-02T07:17:10;12.97;;;7.40;;
27367;SDS011;14839;48.106;11.618;2024-03-02T07:19:35;14.63;;;7.83;;
27367;SDS011;14839;48.106;11.618;2024-03-02T07:22:01;13.57;;;7.13;;
27367;SDS011;14839;48.106;11.618;2024-03-02T07:24:30;12.97;;;8.00;;
27367;SDS011;14839;48.106;11.618;2024-03-02T07:26:56;16.10;;;8.40;;
27367;SDS011;14839;48.106;11.618;2024-03-02T07:29:21;18.53;;;8.77;;
27367;SDS011;14839;48.106;11.618;2024-03-02T07:31:47;12.23;;;7.93;;
27367;SDS011;14839;48.106;11.618;2024-03-02T07:34:13;16.47;;;8.97;;
27367;SDS011;14839;48.106;11.618;2024-03-02T07:36:38;16.87;;;8.03;;
27367;SDS011;14839;48.106;11.618;2024-03-02T07:39:04;18.30;;;7.87;;
27367;SDS011;14839;48.106;11.618;2024-03-02T07:41:30;13.23;;;7.27;;
27367;SDS011;14839;48.106;11.618;2024-03-02T07:43:56;11.00;;;7.47;;
27367;SDS011;14839;48.106;11.618;2024-03-02T07:46:21;13.37;;;7.17;;
27367;SDS011;14839;48.106;11.618;2024-03-02T07:48:47;13.37;;;8.23;;
27367;SDS011;14839;48.106;11.618;2024-03-02T07:51:13;19.83;;;8.33;;
27367;SDS011;14839;48.106;11.618;2024-03-02T07:53:39;16.07;;;8.17;;
27367;SDS011;14839;48.106;11.618;2024-03-02T07:56:05;15.37;;;7.90;;
27367;SDS011;14839;48.106;11.618;2024-03-02T07:58:31;12.70;;;8.93;;
27367;SDS011;14839;48.106;11.618;2024-03-02T08:00:58;13.83;;;7.47;;
27367;SDS011;14839;48.106;11.618;2024-03-02T08:03:26;15.37;;;7.70;;
27367;SDS011;14839;48.106;11.618;2024-03-02T08:05:52;16.93;;;8.40;;
27367;SDS011;14839;48.106;11.618;2024-03-02T08:08:17;13.47;;;7.23;;
27367;SDS011;14839;48.106;11.618;2024-03-02T08:10:43;11.73;;;6.87;;
27367;SDS011;14839;48.106;11.618;2024-03-02T08:13:09;10.43;;;6.17;;
27367;SDS011;14839;48.106;11.618;2024-03-02T08:15:34;10.20;;;6.33;;
27367;SDS011;14839;48.106;11.618;2024-03-02T08:18:00;11.83;;;7.00;;
27367;SDS011;14839;48.106;11.618;2024-03-02T08:20:27;10.27;;;5.97;;
27367;SDS011;14839;48.106;11.618;2024-03-02T08:22:53;10.40;;;5.83;;
27367;SDS011;14839;48.106;11.618;2024-03-02T08:25:20;11.03;;;5.60;;
27367;SDS011;14839;48.106;11.618;2024-03-02T08:27:46;10.47;;;5.30;;
27367;SDS011;14839;48.106;11.618;2024-03-02T08:30:12;9.50;;;5.87;;
27367;SDS011;14839;48.106;11.618;2024-03-02T08:32:37;8.47;;;4.77;;
27367;SDS011;14839;48.106;11.618;2024-03-02T08:35:04;7.27;;;4.90;;
27367;SDS011;14839;48.106;11.618;2024-03-02T08:37:30;12.83;;;6.00;;
27367;SDS011;14839;48.106;11.618;2024-03-02T08:39:56;7.63;;;4.80;;
27367;SDS011;14839;48.106;11.618;2024-03-02T08:42:22;8.33;;;5.37;;
27367;SDS011;14839;48.106;11.618;2024-03-02T08:44:48;8.40;;;5.50;;
27367;SDS011;14839;48.106;11.618;2024-03-02T08:47:14;11.10;;;6.10;;
27367;SDS011;14839;48.106;11.618;2024-03-02T08:49:39;8.97;;;5.57;;
27367;SDS011;14839;48.106;11.618;2024-03-02T08:52:05;9.73;;;5.83;;
27367;SDS011;14839;48.106;11.618;2024-03-02T08:54:31;7.63;;;5.10;;
27367;SDS011;14839;48.106;11.618;2024-03-02T08:56:58;10.23;;;5.77;;
27367;SDS011;14839;48.106;11.618;2024-03-02T08:59:24;10.77;;;6.20;;
27367;SDS011;14839;48.106;11.618;2024-03-02T09:01:50;8.13;;;5.20;;
27367;SDS011;14839;48.106;11.618;2024-03-02T09:04:15;11.30;;;6.03;;
27367;SDS011;14839;48.106;11.618;2024-03-02T09:06:42;9.40;;;6.27;;
27367;SDS011;14839;48.106;11.618;2024-03-02T09:09:08;8.47;;;5.43;;
27367;SDS011;14839;48.106;11.618;2024-03-02T09:11:33;9.10;;;5.23;;
27367;SDS011;14839;48.106;11.618;2024-03-02T09:13:59;6.97;;;4.80;;
27367;SDS011;14839;48.106;11.618;2024-03-02T09:16:25;11.07;;;5.53;;
27367;SDS011;14839;48.106;11.618;2024-03-02T09:18:55;6.93;;;4.83;;
27367;SDS011;14839;48.106;11.618;2024-03-02T09:21:21;7.90;;;5.00;;
27367;SDS011;14839;48.106;11.618;2024-03-02T09:23:47;7.07;;;4.40;;
27367;SDS011;14839;48.106;11.618;2024-03-02T09:26:13;7.27;;;4.63;;
27367;SDS011;14839;48.106;11.618;2024-03-02T09:28:42;7.87;;;4.87;;
27367;SDS011;14839;48.106;11.618;2024-03-02T09:31:09;5.27;;;3.77;;
27367;SDS011;14839;48.106;11.618;2024-03-02T09:33:34;7.27;;;3.67;;
27367;SDS011;14839;48.106;11.618;2024-03-02T09:36:00;4.90;;;3.60;;
27367;SDS011;14839;48.106;11.618;2024-03-02T09:38:25;5.83;;;3.37;;
27367;SDS011;14839;48.106;11.618;2024-03-02T09:40:51;5.60;;;2.80;;
27367;SDS011;14839;48.106;11.618;2024-03-02T09:43:17;4.83;;;3.00;;
27367;SDS011;14839;48.106;11.618;2024-03-02T09:45:42;4.50;;;3.13;;
27367;SDS011;14839;48.106;11.618;2024-03-02T09:48:10;4.93;;;3.13;;
27367;SDS011;14839;48.106;11.618;2024-03-02T09:50:35;5.07;;;3.10;;
27367;SDS011;14839;48.106;11.618;2024-03-02T09:53:01;4.80;;;3.23;;
27367;SDS011;14839;48.106;11.618;2024-03-02T09:55:27;4.37;;;2.83;;
27367;SDS011;14839;48.106;11.618;2024-03-02T09:57:53;4.57;;;2.97;;
27367;SDS011;14839;48.106;11.618;2024-03-02T10:00:18;4.83;;;3.23;;
27367;SDS011;14839;48.106;11.618;2024-03-02T10:02:44;3.57;;;3.07;;
27367;SDS011;14839;48.106;11.618;2024-03-02T10:05:13;4.07;;;2.60;;
27367;SDS011;14839;48.106;11.618;2024-03-02T10:07:58;4.17;;;2.90;;
27367;SDS011;14839;48.106;11.618;2024-03-02T10:10:26;3.60;;;3.13;;
27367;SDS011;14839;48.106;11.618;2024-03-02T10:13:08;4.93;;;3.73;;
27367;SDS011;14839;48.106;11.618;2024-03-02T10:15:37;7.07;;;4.17;;
27367;SDS011;14839;48.106;11.618;2024-03-02T10:18:07;6.10;;;3.70;;
27367;SDS011;14839;48.106;11.618;2024-03-02T10:20:36;6.87;;;4.00;;
27367;SDS011;14839;48.106;11.618;2024-03-02T10:23:09;5.07;;;3.50;;
27367;SDS011;14839;48.106;11.618;2024-03-02T10:25:36;7.43;;;3.10;;
27367;SDS011;14839;48.106;11.618;2024-03-02T10:28:02;4.60;;;2.67;;
27367;SDS011;14839;48.106;11.618;2024-03-02T10:30:30;7.33;;;3.93;;
27367;SDS011;14839;48.106;11.618;2024-03-02T10:32:55;5.47;;;3.60;;
27367;SDS011;14839;48.106;11.618;2024-03-02T10:35:22;4.73;;;3.17;;
27367;SDS011;14839;48.106;11.618;2024-03-02T10:37:51;6.37;;;3.53;;
27367;SDS011;14839;48.106;11.618;2024-03-02T10:40:18;5.07;;;2.83;;
27367;SDS011;14839;48.106;11.618;2024-03-02T10:42:46;6.80;;;2.83;;
27367;SDS011;14839;48.106;11.618;2024-03-02T10:45:13;6.40;;;3.20;;
27367;SDS011;14839;48.106;11.618;2024-03-02T10:47:41;7.03;;;3.73;;
27367;SDS011;14839;48.106;11.618;2024-03-02T10:50:08;5.10;;;3.23;;
27367;SDS011;14839;48.106;11.618;2024-03-02T10:52:35;6.47;;;3.77;;
27367;SDS011;14839;48.106;11.618;2024-03-02T10:55:01;6.33;;;3.53;;
27367;SDS011;14839;48.106;11.618;2024-03-02T10:57:31;7.60;;;4.67;;
27367;SDS011;14839;48.106;11.618;2024-03-02T11:00:11;8.10;;;5.20;;
27367;SDS011;14839;48.106;11.618;2024-03-02T11:02:46;6.90;;;4.87;;
27367;SDS011;14839;48.106;11.618;2024-03-02T11:05:18;8.57;;;5.87;;
27367;SDS011;14839;48.106;11.618;2024-03-02T11:07:53;12.53;;;5.13;;
27367;SDS011;14839;48.106;11.618;2024-03-02T11:10:22;11.83;;;6.13;;
27367;SDS011;14839;48.106;11.618;2024-03-02T11:12:53;10.43;;;6.40;;
27367;SDS011;14839;48.106;11.618;2024-03-02T11:15:24;11.50;;;5.87;;
27367;SDS011;14839;48.106;11.618;2024-03-02T11:17:51;10.07;;;5.83;;
27367;SDS011;14839;48.106;11.618;2024-03-02T11:20:18;9.50;;;5.03;;
27367;SDS011;14839;48.106;11.618;2024-03-02T11:22:45;8.17;;;4.27;;
27367;SDS011;14839;48.106;11.618;2024-03-02T11:25:26;10.10;;;4.93;;
27367;SDS011;14839;48.106;11.618;2024-03-02T11:33:08;9.53;;;5.47;;
27367;SDS011;14839;48.106;11.618;2024-03-02T11:35:34;7.23;;;4.13;;
27367;SDS011;14839;48.106;11.618;2024-03-02T11:38:07;7.80;;;4.60;;
27367;SDS011;14839;48.106;11.618;2024-03-02T11:40:34;9.83;;;4.03;;
27367;SDS011;14839;48.106;11.618;2024-03-02T11:43:00;6.30;;;4.40;;
27367;SDS011;14839;48.106;11.618;2024-03-02T11:45:26;7.80;;;3.97;;
27367;SDS011;14839;48.106;11.618;2024-03-02T11:47:55;8.83;;;4.63;;
27367;SDS011;14839;48.106;11.618;2024-03-02T11:50:28;7.70;;;4.00;;
27367;SDS011;14839;48.106;11.618;2024-03-02T11:53:14;5.93;;;3.30;;
27367;SDS011;14839;48.106;11.618;2024-03-02T11:55:40;9.87;;;3.70;;
27367;SDS011;14839;48.106;11.618;2024-03-02T11:58:06;7.83;;;4.03;;
27367;SDS011;14839;48.106;11.618;2024-03-02T12:00:32;6.40;;;4.07;;
27367;SDS011;14839;48.106;11.618;2024-03-02T12:03:02;7.20;;;4.30;;
27367;SDS011;14839;48.106;11.618;2024-03-02T12:05:32;9.57;;;5.53;;
27367;SDS011;14839;48.106;11.618;2024-03-02T12:07:59;7.97;;;4.80;;
27367;SDS011;14839;48.106;11.618;2024-03-02T12:10:26;13.87;;;5.43;;
27367;SDS011;14839;48.106;11.618;2024-03-02T12:12:58;7.90;;;4.60;;
27367;SDS011;14839;48.106;11.618;2024-03-02T12:15:29;10.27;;;5.33;;
27367;SDS011;14839;48.106;11.618;2024-03-02T12:18:00;11.47;;;4.83;;
27367;SDS011;14839;48.106;11.618;2024-03-02T12:20:27;11.50;;;5.80;;
27367;SDS011;14839;48.106;11.618;2024-03-02T12:22:54;10.20;;;5.23;;
27367;SDS011;14839;48.106;11.618;2024-03-02T12:25:23;10.93;;;5.43;;
27367;SDS011;14839;48.106;11.618;2024-03-02T12:27:50;11.03;;;4.97;;
27367;SDS011;14839;48.106;11.618;2024-03-02T12:30:18;10.43;;;5.37;;
27367;SDS011;14839;48.106;11.618;2024-03-02T12:32:45;9.57;;;5.60;;
27367;SDS011;14839;48.106;11.618;2024-03-02T12:35:11;7.23;;;5.03;;
27367;SDS011;14839;48.106;11.618;2024-03-02T12:40:13;7.20;;;4.53;;
27367;SDS011;14839;48.106;11.618;2024-03-02T12:42:40;8.70;;;4.20;;
27367;SDS011;14839;48.106;11.618;2024-03-02T12:45:09;6.30;;;3.80;;
27367;SDS011;14839;48.106;11.618;2024-03-02T12:47:35;8.73;;;4.57;;
27367;SDS011;14839;48.106;11.618;2024-03-02T12:50:01;6.00;;;3.53;;
27367;SDS011;14839;48.106;11.618;2024-03-02T12:52:28;6.50;;;3.97;;
27367;SDS011;14839;48.106;11.618;2024-03-02T12:54:54;6.90;;;4.20;;
27367;SDS011;14839;48.106;11.618;2024-03-02T12:57:25;6.53;;;3.03;;
27367;SDS011;14839;48.106;11.618;2024-03-02T13:00:00;5.60;;;2.97;;
27367;SDS011;14839;48.106;11.618;2024-03-02T13:02:33;5.27;;;3.20;;
27367;SDS011;14839;48.106;11.618;2024-03-02T13:05:00;5.20;;;2.60;;
27367;SDS011;14839;48.106;11.618;2024-03-02T13:07:25;12.17;;;4.40;;
27367;SDS011;14839;48.106;11.618;2024-03-02T13:09:51;5.30;;;4.00;;
27367;SDS011;14839;48.106;11.618;2024-03-02T13:12:19;7.87;;;4.23;;
27367;SDS011;14839;48.106;11.618;2024-03-02T13:14:47;6.80;;;3.63;;
27367;SDS011;14839;48.106;11.618;2024-03-02T13:17:16;2.97;;;2.00;;
27367;SDS011;14839;48.106;11.618;2024-03-02T13:19:43;3.43;;;1.90;;
27367;SDS011;14839;48.106;11.618;2024-03-02T13:22:19;4.33;;;2.47;;
27367;SDS011;14839;48.106;11.618;2024-03-02T13:24:45;5.60;;;2.90;;
27367;SDS011;14839;48.106;11.618;2024-03-02T13:27:10;7.13;;;4.27;;
27367;SDS011;14839;48.106;11.618;2024-03-02T13:29:45;8.60;;;4.37;;
27367;SDS011;14839;48.106;11.618;2024-03-02T13:32:13;9.30;;;5.03;;
27367;SDS011;14839;48.106;11.618;2024-03-02T13:34:42;8.40;;;5.80;;
27367;SDS011;14839;48.106;11.618;2024-03-02T13:37:08;8.73;;;5.13;;
27367;SDS011;14839;48.106;11.618;2024-03-02T13:39:34;8.93;;;5.33;;
27367;SDS011;14839;48.106;11.618;2024-03-02T13:42:11;9.13;;;6.07;;
27367;SDS011;14839;48.106;11.618;2024-03-02T13:44:39;12.33;;;5.70;;
27367;SDS011;14839;48.106;11.618;2024-03-02T13:47:05;12.07;;;6.03;;
27367;SDS011;14839;48.106;11.618;2024-03-02T13:49:31;14.10;;;6.63;;
27367;SDS011;14839;48.106;11.618;2024-03-02T13:52:04;12.03;;;6.50;;
27367;SDS011;14839;48.106;11.618;2024-03-02T13:54:39;9.17;;;5.43;;
27367;SDS011;14839;48.106;11.618;2024-03-02T13:57:07;11.57;;;5.87;;
27367;SDS011;14839;48.106;11.618;2024-03-02T13:59:33;9.87;;;5.67;;
27367;SDS011;14839;48.106;11.618;2024-03-02T14:02:02;9.23;;;5.83;;
27367;SDS011;14839;48.106;11.618;2024-03-02T14:04:30;9.03;;;5.10;;
27367;SDS011;14839;48.106;11.618;2024-03-02T14:06:56;5.33;;;2.80;;
27367;SDS011;14839;48.106;11.618;2024-03-02T14:09:22;4.40;;;3.10;;
27367;SDS011;14839;48.106;11.618;2024-03-02T14:11:49;6.47;;;3.67;;
27367;SDS011;14839;48.106;11.618;2024-03-02T14:14:16;5.03;;;2.43;;
27367;SDS011;14839;48.106;11.618;2024-03-02T14:16:41;3.60;;;1.70;;
27367;SDS011;14839;48.106;11.618;2024-03-02T14:19:07;5.47;;;2.53;;
27367;SDS011;14839;48.106;11.618;2024-03-02T14:21:34;5.33;;;2.20;;
27367;SDS011;14839;48.106;11.618;2024-03-02T14:24:00;4.90;;;2.37;;
27367;SDS011;14839;48.106;11.618;2024-03-02T14:26:29;3.93;;;2.00;;
27367;SDS011;14839;48.106;11.618;2024-03-02T14:28:55;3.40;;;2.30;;
27367;SDS011;14839;48.106;11.618;2024-03-02T14:31:20;4.97;;;2.50;;
27367;SDS011;14839;48.106;11.618;2024-03-02T14:33:46;4.57;;;2.90;;
27367;SDS011;14839;48.106;11.618;2024-03-02T14:36:11;9.70;;;4.40;;
27367;SDS011;14839;48.106;11.618;2024-03-02T14:38:37;7.27;;;3.93;;
27367;SDS011;14839;48.106;11.618;2024-03-02T14:41:04;6.07;;;4.23;;
27367;SDS011;14839;48.106;11.618;2024-03-02T14:43:30;5.17;;;2.60;;
27367;SDS011;14839;48.106;11.618;2024-03-02T14:45:55;3.33;;;2.13;;
27367;SDS011;14839;48.106;11.618;2024-03-02T14:48:21;7.27;;;2.57;;
27367;SDS011;14839;48.106;11.618;2024-03-02T14:50:47;3.73;;;2.37;;
27367;SDS011;14839;48.106;11.618;2024-03-02T14:53:13;4.43;;;1.90;;
27367;SDS011;14839;48.106;11.618;2024-03-02T14:55:39;2.83;;;2.17;;
27367;SDS011;14839;48.106;11.618;2024-03-02T14:58:04;4.03;;;2.47;;
27367;SDS011;14839;48.106;11.618;2024-03-02T15:00:30;5.03;;;2.47;;
27367;SDS011;14839;48.106;11.618;2024-03-02T15:02:56;4.23;;;2.03;;
27367;SDS011;14839;48.106;11.618;2024-03-02T15:05:22;3.50;;;2.00;;
27367;SDS011;14839;48.106;11.618;2024-03-02T15:07:47;4.53;;;2.30;;
27367;SDS011;14839;48.106;11.618;2024-03-02T15:10:13;4.33;;;2.60;;
27367;SDS011;14839;48.106;11.618;2024-03-02T15:12:38;4.13;;;2.30;;
27367;SDS011;14839;48.106;11.618;2024-03-02T15:15:04;3.23;;;1.97;;
27367;SDS011;14839;48.106;11.618;2024-03-02T15:17:30;5.23;;;2.47;;
27367;SDS011;14839;48.106;11.618;2024-03-02T15:19:56;6.90;;;2.77;;
27367;SDS011;14839;48.106;11.618;2024-03-02T15:22:22;4.80;;;2.50;;
27367;SDS011;14839;48.106;11.618;2024-03-02T15:24:47;7.03;;;2.30;;
27367;SDS011;14839;48.106;11.618;2024-03-02T15:27:13;2.17;;;1.93;;
27367;SDS011;14839;48.106;11.618;2024-03-02T15:29:38;3.43;;;1.80;;
27367;SDS011;14839;48.106;11.618;2024-03-02T15:32:04;3.57;;;2.13;;
27367;SDS011;14839;48.106;11.618;2024-03-02T15:34:31;3.13;;;1.97;;
27367;SDS011;14839;48.106;11.618;2024-03-02T15:36:58;6.23;;;2.73;;
27367;SDS011;14839;48.106;11.618;2024-03-02T15:39:24;4.40;;;2.60;;
27367;SDS011;14839;48.106;11.618;2024-03-02T15:41:50;4.17;;;2.40;;
27367;SDS011;14839;48.106;11.618;2024-03-02T15:44:15;5.10;;;2.67;;
27367;SDS011;14839;48.106;11.618;2024-03-02T15:46:41;6.77;;;3.60;;
27367;SDS011;14839;48.106;11.618;2024-03-02T15:49:07;6.13;;;2.87;;
27367;SDS011;14839;48.106;11.618;2024-03-02T15:51:33;6.47;;;3.70;;
27367;SDS011;14839;48.106;11.618;2024-03-02T15:54:01;6.67;;;3.40;;
27367;SDS011;14839;48.106;11.618;2024-03-02T15:56:27;4.53;;;3.03;;
27367;SDS011;14839;48.106;11.618;2024-03-02T15:58:52;5.70;;;3.67;;
27367;SDS011;14839;48.106;11.618;2024-03-02T16:01:18;6.80;;;4.07;;
27367;SDS011;14839;48.106;11.618;2024-03-02T16:03:45;11.03;;;4.07;;
27367;SDS011;14839;48.106;11.618;2024-03-02T16:06:10;7.10;;;3.60;;
27367;SDS011;14839;48.106;11.618;2024-03-02T16:08:36;9.67;;;4.07;;
27367;SDS011;14839;48.106;11.618;2024-03-02T16:11:02;6.00;;;3.63;;
27367;SDS011;14839;48.106;11.618;2024-03-02T16:13:28;5.67;;;3.20;;
27367;SDS011;14839;48.106;11.618;2024-03-02T16:15:55;7.57;;;3.70;;
27367;SDS011;14839;48.106;11.618;2024-03-02T16:18:20;8.73;;;3.43;;
27367;SDS011;14839;48.106;11.618;2024-03-02T16:20:46;6.03;;;3.80;;
27367;SDS011;14839;48.106;11.618;2024-03-02T16:23:11;7.53;;;2.50;;
27367;SDS011;14839;48.106;11.618;2024-03-02T16:25:37;8.20;;;4.30;;
27367;SDS011;14839;48.106;11.618;2024-03-02T16:28:06;7.57;;;3.83;;
27367;SDS011;14839;48.106;11.618;2024-03-02T16:30:32;6.33;;;3.57;;
27367;SDS011;14839;48.106;11.618;2024-03-02T16:32:58;8.80;;;3.87;;
27367;SDS011;14839;48.106;11.618;2024-03-02T16:35:23;7.40;;;3.97;;
27367;SDS011;14839;48.106;11.618;2024-03-02T16:37:49;9.07;;;3.80;;
27367;SDS011;14839;48.106;11.618;2024-03-02T16:40:15;8.57;;;4.00;;
27367;SDS011;14839;48.106;11.618;2024-03-02T16:42:40;7.87;;;4.57;;
27367;SDS011;14839;48.106;11.618;2024-03-02T16:45:06;11.07;;;4.87;;
27367;SDS011;14839;48.106;11.618;2024-03-02T16:47:32;12.40;;;6.27;;
27367;SDS011;14839;48.106;11.618;2024-03-02T16:49:57;12.27;;;5.33;;
27367;SDS011;14839;48.106;11.618;2024-03-02T16:52:24;14.07;;;5.93;;
27367;SDS011;14839;48.106;11.618;2024-03-02T16:54:50;10.97;;;5.87;;
27367;SDS011;14839;48.106;11.618;2024-03-02T16:57:16;11.07;;;5.50;;
27367;SDS011;14839;48.106;11.618;2024-03-02T16:59:42;14.27;;;6.07;;
27367;SDS011;14839;48.106;11.618;2024-03-02T17:02:08;12.37;;;7.10;;
27367;SDS011;14839;48.106;11.618;2024-03-02T17:04:35;10.97;;;5.43;;
27367;SDS011;14839;48.106;11.618;2024-03-02T17:07:01;9.43;;;5.37;;
27367;SDS011;14839;48.106;11.618;2024-03-02T17:09:27;14.90;;;6.30;;
27367;SDS011;14839;48.106;11.618;2024-03-02T17:11:53;14.67;;;6.90;;
27367;SDS011;14839;48.106;11.618;2024-03-02T17:14:19;12.80;;;6.57;;
27367;SDS011;14839;48.106;11.618;2024-03-02T17:16:44;12.47;;;6.77;;
27367;SDS011;14839;48.106;11.618;2024-03-02T17:19:10;14.93;;;8.13;;
27367;SDS011;14839;48.106;11.618;2024-03-02T17:21:35;13.07;;;7.43;;
27367;SDS011;14839;48.106;11.618;2024-03-02T17:24:01;9.67;;;5.80;;
27367;SDS011;14839;48.106;11.618;2024-03-02T17:26:28;14.17;;;7.50;;
27367;SDS011;14839;48.106;11.618;2024-03-02T17:28:54;16.90;;;8.27;;
27367;SDS011;14839;48.106;11.618;2024-03-02T17:31:20;15.70;;;7.40;;
27367;SDS011;14839;48.106;11.618;2024-03-02T17:33:45;17.63;;;8.07;;
27367;SDS011;14839;48.106;11.618;2024-03-02T17:36:11;19.37;;;7.90;;
27367;SDS011;14839;48.106;11.618;2024-03-02T17:38:38;15.80;;;7.70;;
27367;SDS011;14839;48.106;11.618;2024-03-02T17:41:04;13.70;;;7.93;;
27367;SDS011;14839;48.106;11.618;2024-03-02T17:43:30;19.10;;;8.73;;
27367;SDS011;14839;48.106;11.618;2024-03-02T17:45:55;21.57;;;8.23;;
27367;SDS011;14839;48.106;11.618;2024-03-02T17:48:24;18.23;;;8.30;;
27367;SDS011;14839;48.106;11.618;2024-03-02T17:50:50;20.17;;;8.77;;
27367;SDS011;14839;48.106;11.618;2024-03-02T17:53:16;17.33;;;8.70;;
27367;SDS011;14839;48.106;11.618;2024-03-02T17:55:41;19.20;;;8.63;;
27367;SDS011;14839;48.106;11.618;2024-03-02T17:58:07;15.97;;;8.30;;
27367;SDS011;14839;48.106;11.618;2024-03-02T18:00:33;22.73;;;8.90;;
27367;SDS011;14839;48.106;11.618;2024-03-02T18:02:58;21.70;;;8.97;;
27367;SDS011;14839;48.106;11.618;2024-03-02T18:05:24;22.33;;;9.60;;
27367;SDS011;14839;48.106;11.618;2024-03-02T18:07:49;20.93;;;10.13;;
27367;SDS011;14839;48.106;11.618;2024-03-02T18:10:15;17.70;;;8.40;;
27367;SDS011;14839;48.106;11.618;2024-03-02T18:12:40;15.63;;;8.50;;
27367;SDS011;14839;48.106;11.618;2024-03-02T18:15:07;22.03;;;9.13;;
27367;SDS011;14839;48.106;11.618;2024-03-02T18:17:33;13.47;;;7.50;;
27367;SDS011;14839;48.106;11.618;2024-03-02T18:19:59;17.87;;;9.07;;
27367;SDS011;14839;48.106;11.618;2024-03-02T18:22:25;15.83;;;8.47;;
27367;SDS011;14839;48.106;11.618;2024-03-02T18:24:51;16.87;;;8.27;;
27367;SDS011;14839;48.106;11.618;2024-03-02T18:27:16;17.87;;;8.53;;
27367;SDS011;14839;48.106;11.618;2024-03-02T18:29:43;17.10;;;9.13;;
27367;SDS011;14839;48.106;11.618;2024-03-02T18:32:08;17.73;;;8.97;;
27367;SDS011;14839;48.106;11.618;2024-03-02T18:34:34;19.40;;;9.07;;
27367;SDS011;14839;48.106;11.618;2024-03-02T18:37:00;19.27;;;8.90;;
27367;SDS011;14839;48.106;11.618;2024-03-02T18:39:25;22.73;;;9.20;;
27367;SDS011;14839;48.106;11.618;2024-03-02T18:41:51;21.27;;;9.33;;
27367;SDS011;14839;48.106;11.618;2024-03-02T18:44:17;20.40;;;9.27;;
27367;SDS011;14839;48.106;11.618;2024-03-02T18:46:42;19.63;;;8.70;;
27367;SDS011;14839;48.106;11.618;2024-03-02T18:49:08;18.27;;;9.13;;
27367;SDS011;14839;48.106;11.618;2024-03-02T18:51:34;18.27;;;7.50;;
27367;SDS011;14839;48.106;11.618;2024-03-02T18:54:01;21.90;;;10.03;;
27367;SDS011;14839;48.106;11.618;2024-03-02T18:56:26;22.23;;;10.67;;
27367;SDS011;14839;48.106;11.618;2024-03-02T18:58:52;18.27;;;9.13;;
27367;SDS011;14839;48.106;11.618;2024-03-02T19:01:17;21.10;;;9.97;;
27367;SDS011;14839;48.106;11.618;2024-03-02T19:03:44;23.20;;;10.37;;
27367;SDS011;14839;48.106;11.618;2024-03-02T19:06:16;20.50;;;9.13;;
27367;SDS011;14839;48.106;11.618;2024-03-02T19:08:42;21.97;;;9.53;;
27367;SDS011;14839;48.106;11.618;2024-03-02T19:11:14;22.40;;;10.17;;
27367;SDS011;14839;48.106;11.618;2024-03-02T19:13:41;22.83;;;10.87;;
27367;SDS011;14839;48.106;11.618;2024-03-02T19:16:11;25.87;;;11.90;;
27367;SDS011;14839;48.106;11.618;2024-03-02T19:18:38;26.53;;;11.53;;
27367;SDS011;14839;48.106;11.618;2024-03-02T19:21:04;24.43;;;10.57;;
27367;SDS011;14839;48.106;11.618;2024-03-02T19:23:30;29.30;;;12.67;;
27367;SDS011;14839;48.106;11.618;2024-03-02T19:25:56;33.57;;;13.03;;
27367;SDS011;14839;48.106;11.618;2024-03-02T19:28:22;25.57;;;11.50;;
27367;SDS011;14839;48.106;11.618;2024-03-02T19:30:48;22.40;;;11.43;;
27367;SDS011;14839;48.106;11.618;2024-03-02T19:33:14;24.27;;;11.13;;
27367;SDS011;14839;48.106;11.618;2024-03-02T19:35:40;26.67;;;10.83;;